sensor_id;sensor_type;location;lat;lon;timestamp;temperature;humidity
11067;DHT22;29763;50.904;5.530;2023-11-21T00:00:49;8.90;99.90
11067;DHT22;29763;50.904;5.530;2023-11-21T00:03:18;8.90;99.90
11067;DHT22;29763;50.904;5.530;2023-11-21T00:06:13;9.00;99.90
11067;DHT22;29763;50.904;5.530;2023-11-21T00:08:53;9.00;99.90
11067;DHT22;29763;50.904;5.530;2023-11-21T00:11:21;9.00;99.90
11067;DHT22;29763;50.904;5.530;2023-11-21T00:14:04;9.00;99.90
11067;DHT22;29763;50.904;5.530;2023-11-21T00:16:38;9.10;99.90
11067;DHT22;29763;50.904;5.530;2023-11-21T00:19:24;9.10;99.90
11067;DHT22;29763;50.904;5.530;2023-11-21T00:21:53;9.10;99.90
11067;DHT22;29763;50.904;5.530;2023-11-21T00:24:24;9.10;99.90
11067;DHT22;29763;50.904;5.530;2023-11-21T00:26:51;9.10;99.90
11067;DHT22;29763;50.904;5.530;2023-11-21T00:29:28;9.00;99.90
11067;DHT22;29763;50.904;5.530;2023-11-21T00:31:54;9.00;99.90
11067;DHT22;29763;50.904;5.530;2023-11-21T00:34:25;9.00;99.90
11067;DHT22;29763;50.904;5.530;2023-11-21T00:36:51;9.00;99.90
11067;DHT22;29763;50.904;5.530;2023-11-21T00:39:27;9.10;99.90
11067;DHT22;29763;50.904;5.530;2023-11-21T00:41:56;9.10;99.90
11067;DHT22;29763;50.904;5.530;2023-11-21T00:44:37;9.10;99.90
11067;DHT22;29763;50.904;5.530;2023-11-21T00:47:06;9.10;99.90
11067;DHT22;29763;50.904;5.530;2023-11-21T00:50:10;9.10;99.90
11067;DHT22;29763;50.904;5.530;2023-11-21T00:52:38;9.10;99.90
11067;DHT22;29763;50.904;5.530;2023-11-21T00:55:15;9.10;99.90
11067;DHT22;29763;50.904;5.530;2023-11-21T00:58:00;9.10;99.90
11067;DHT22;29763;50.904;5.530;2023-11-21T01:00:51;9.10;99.90
11067;DHT22;29763;50.904;5.530;2023-11-21T01:03:18;9.10;99.90
11067;DHT22;29763;50.904;5.530;2023-11-21T01:05:54;9.10;99.90
11067;DHT22;29763;50.904;5.530;2023-11-21T01:08:21;9.10;99.90
11067;DHT22;29763;50.904;5.530;2023-11-21T01:10:58;9.10;99.90
11067;DHT22;29763;50.904;5.530;2023-11-21T01:13:31;9.20;99.90
11067;DHT22;29763;50.904;5.530;2023-11-21T01:16:08;9.10;99.90
11067;DHT22;29763;50.904;5.530;2023-11-21T01:19:18;9.20;99.90
11067;DHT22;29763;50.904;5.530;2023-11-21T01:22:02;9.20;99.90
11067;DHT22;29763;50.904;5.530;2023-11-21T01:24:54;9.20;99.90
11067;DHT22;29763;50.904;5.530;2023-11-21T01:27:24;9.20;99.90
11067;DHT22;29763;50.904;5.530;2023-11-21T01:30:06;9.20;99.90
11067;DHT22;29763;50.904;5.530;2023-11-21T01:32:53;9.20;99.90
11067;DHT22;29763;50.904;5.530;2023-11-21T01:35:20;9.20;99.90
11067;DHT22;29763;50.904;5.530;2023-11-21T01:37:46;9.20;99.90
11067;DHT22;29763;50.904;5.530;2023-11-21T01:40:16;9.20;99.90
11067;DHT22;29763;50.904;5.530;2023-11-21T01:42:52;9.20;99.90
11067;DHT22;29763;50.904;5.530;2023-11-21T01:45:30;9.20;99.90
11067;DHT22;29763;50.904;5.530;2023-11-21T01:48:16;9.20;99.90
11067;DHT22;29763;50.904;5.530;2023-11-21T01:50:43;9.20;99.90
11067;DHT22;29763;50.904;5.530;2023-11-21T01:53:14;9.20;99.90
11067;DHT22;29763;50.904;5.530;2023-11-21T01:55:48;9.20;99.90
11067;DHT22;29763;50.904;5.530;2023-11-21T01:58:19;9.20;99.90
11067;DHT22;29763;50.904;5.530;2023-11-21T02:00:53;9.20;99.90
11067;DHT22;29763;50.904;5.530;2023-11-21T02:03:25;9.20;99.90
11067;DHT22;29763;50.904;5.530;2023-11-21T02:05:57;9.20;99.90
11067;DHT22;29763;50.904;5.530;2023-11-21T02:12:03;9.20;99.90
11067;DHT22;29763;50.904;5.530;2023-11-21T02:14:39;9.20;99.90
11067;DHT22;29763;50.904;5.530;2023-11-21T02:17:11;9.20;99.90
11067;DHT22;29763;50.904;5.530;2023-11-21T02:19:42;9.20;99.90
11067;DHT22;29763;50.904;5.530;2023-11-21T02:22:13;9.10;99.90
11067;DHT22;29763;50.904;5.530;2023-11-21T02:24:48;9.10;99.90
11067;DHT22;29763;50.904;5.530;2023-11-21T02:27:25;9.10;99.90
11067;DHT22;29763;50.904;5.530;2023-11-21T02:29:54;9.20;99.90
11067;DHT22;29763;50.904;5.530;2023-11-21T02:32:29;9.20;99.90
11067;DHT22;29763;50.904;5.530;2023-11-21T02:35:03;9.20;99.90
11067;DHT22;29763;50.904;5.530;2023-11-21T02:37:33;9.30;99.90
11067;DHT22;29763;50.904;5.530;2023-11-21T02:40:14;9.30;99.90
11067;DHT22;29763;50.904;5.530;2023-11-21T02:42:52;9.30;99.90
11067;DHT22;29763;50.904;5.530;2023-11-21T02:45:25;9.30;99.90
11067;DHT22;29763;50.904;5.530;2023-11-21T02:47:54;9.20;99.90
11067;DHT22;29763;50.904;5.530;2023-11-21T02:50:26;9.30;99.90
11067;DHT22;29763;50.904;5.530;2023-11-21T02:53:07;9.30;99.90
11067;DHT22;29763;50.904;5.530;2023-11-21T02:55:34;9.30;99.90
11067;DHT22;29763;50.904;5.530;2023-11-21T02:58:04;9.30;99.90
11067;DHT22;29763;50.904;5.530;2023-11-21T03:00:37;9.30;99.90
11067;DHT22;29763;50.904;5.530;2023-11-21T03:05:56;9.40;99.90
11067;DHT22;29763;50.904;5.530;2023-11-21T03:08:25;9.40;99.90
11067;DHT22;29763;50.904;5.530;2023-11-21T03:11:01;9.40;99.90
11067;DHT22;29763;50.904;5.530;2023-11-21T03:13:47;9.40;99.90
11067;DHT22;29763;50.904;5.530;2023-11-21T03:16:20;9.40;99.90
11067;DHT22;29763;50.904;5.530;2023-11-21T03:18:58;9.40;99.90
11067;DHT22;29763;50.904;5.530;2023-11-21T03:21:27;9.40;99.90
11067;DHT22;29763;50.904;5.530;2023-11-21T03:24:03;9.40;99.90
11067;DHT22;29763;50.904;5.530;2023-11-21T03:26:41;9.40;99.90
11067;DHT22;29763;50.904;5.530;2023-11-21T03:29:09;9.40;99.90
11067;DHT22;29763;50.904;5.530;2023-11-21T03:31:45;9.40;99.90
11067;DHT22;29763;50.904;5.530;2023-11-21T03:34:22;9.40;99.90
11067;DHT22;29763;50.904;5.530;2023-11-21T03:36:53;9.40;99.90
11067;DHT22;29763;50.904;5.530;2023-11-21T03:39:27;9.40;99.90
11067;DHT22;29763;50.904;5.530;2023-11-21T03:41:59;9.40;99.90
11067;DHT22;29763;50.904;5.530;2023-11-21T03:44:36;9.40;99.90
11067;DHT22;29763;50.904;5.530;2023-11-21T03:47:05;9.40;99.90
11067;DHT22;29763;50.904;5.530;2023-11-21T03:49:34;9.40;99.90
11067;DHT22;29763;50.904;5.530;2023-11-21T03:52:14;9.50;99.90
11067;DHT22;29763;50.904;5.530;2023-11-21T03:54:58;9.50;99.90
11067;DHT22;29763;50.904;5.530;2023-11-21T03:57:39;9.50;99.90
11067;DHT22;29763;50.904;5.530;2023-11-21T04:06:50;9.50;99.90
11067;DHT22;29763;50.904;5.530;2023-11-21T04:09:39;9.50;99.90
11067;DHT22;29763;50.904;5.530;2023-11-21T04:12:07;9.50;99.90
11067;DHT22;29763;50.904;5.530;2023-11-21T04:18:23;9.50;99.90
11067;DHT22;29763;50.904;5.530;2023-11-21T04:21:22;9.50;99.90
11067;DHT22;29763;50.904;5.530;2023-11-21T04:24:19;9.50;99.90
11067;DHT22;29763;50.904;5.530;2023-11-21T04:27:06;9.50;99.90
11067;DHT22;29763;50.904;5.530;2023-11-21T04:29:31;9.50;99.90
11067;DHT22;29763;50.904;5.530;2023-11-21T04:31:57;9.50;99.90
11067;DHT22;29763;50.904;5.530;2023-11-21T04:34:26;9.60;99.90
11067;DHT22;29763;50.904;5.530;2023-11-21T04:37:01;9.50;99.90
11067;DHT22;29763;50.904;5.530;2023-11-21T04:39:32;9.60;99.90
11067;DHT22;29763;50.904;5.530;2023-11-21T04:42:07;9.60;99.90
11067;DHT22;29763;50.904;5.530;2023-11-21T04:44:38;9.60;99.90
11067;DHT22;29763;50.904;5.530;2023-11-21T04:47:15;9.60;99.90
11067;DHT22;29763;50.904;5.530;2023-11-21T04:49:43;9.60;99.90
11067;DHT22;29763;50.904;5.530;2023-11-21T04:52:16;9.50;99.90
11067;DHT22;29763;50.904;5.530;2023-11-21T04:54:46;9.60;99.90
11067;DHT22;29763;50.904;5.530;2023-11-21T04:57:13;9.60;99.90
11067;DHT22;29763;50.904;5.530;2023-11-21T04:59:44;9.60;99.90
11067;DHT22;29763;50.904;5.530;2023-11-21T05:02:14;9.60;99.90
11067;DHT22;29763;50.904;5.530;2023-11-21T05:04:43;9.60;99.90
11067;DHT22;29763;50.904;5.530;2023-11-21T05:07:22;9.60;99.90
11067;DHT22;29763;50.904;5.530;2023-11-21T05:09:54;9.50;99.90
11067;DHT22;29763;50.904;5.530;2023-11-21T05:12:26;9.50;99.90
11067;DHT22;29763;50.904;5.530;2023-11-21T05:14:53;9.50;99.90
11067;DHT22;29763;50.904;5.530;2023-11-21T05:17:21;9.50;99.90
11067;DHT22;29763;50.904;5.530;2023-11-21T05:19:52;9.50;99.90
11067;DHT22;29763;50.904;5.530;2023-11-21T05:22:26;9.50;99.90
11067;DHT22;29763;50.904;5.530;2023-11-21T05:25:13;9.40;99.90
11067;DHT22;29763;50.904;5.530;2023-11-21T05:27:51;9.40;99.90
11067;DHT22;29763;50.904;5.530;2023-11-21T05:30:16;9.40;99.90
11067;DHT22;29763;50.904;5.530;2023-11-21T05:32:42;9.40;99.90
11067;DHT22;29763;50.904;5.530;2023-11-21T05:35:08;9.50;99.90
11067;DHT22;29763;50.904;5.530;2023-11-21T05:37:40;9.50;99.90
11067;DHT22;29763;50.904;5.530;2023-11-21T05:40:09;9.40;99.90
11067;DHT22;29763;50.904;5.530;2023-11-21T05:42:53;9.50;99.90
11067;DHT22;29763;50.904;5.530;2023-11-21T05:45:27;9.50;99.90
11067;DHT22;29763;50.904;5.530;2023-11-21T05:47:55;9.50;99.90
11067;DHT22;29763;50.904;5.530;2023-11-21T05:50:21;9.50;99.90
11067;DHT22;29763;50.904;5.530;2023-11-21T05:52:49;9.50;99.90
11067;DHT22;29763;50.904;5.530;2023-11-21T05:55:18;9.50;99.90
11067;DHT22;29763;50.904;5.530;2023-11-21T05:57:54;9.50;99.90
11067;DHT22;29763;50.904;5.530;2023-11-21T06:00:26;9.50;99.90
11067;DHT22;29763;50.904;5.530;2023-11-21T06:02:55;9.50;99.90
11067;DHT22;29763;50.904;5.530;2023-11-21T06:05:35;9.50;99.90
11067;DHT22;29763;50.904;5.530;2023-11-21T06:08:02;9.50;99.90
11067;DHT22;29763;50.904;5.530;2023-11-21T06:10:28;9.40;99.90
11067;DHT22;29763;50.904;5.530;2023-11-21T06:12:57;9.40;99.90
11067;DHT22;29763;50.904;5.530;2023-11-21T06:15:40;9.40;99.90
11067;DHT22;29763;50.904;5.530;2023-11-21T06:18:15;9.40;99.90
11067;DHT22;29763;50.904;5.530;2023-11-21T06:20:51;9.40;99.90
11067;DHT22;29763;50.904;5.530;2023-11-21T06:23:24;9.40;99.90
11067;DHT22;29763;50.904;5.530;2023-11-21T06:26:01;9.40;99.90
11067;DHT22;29763;50.904;5.530;2023-11-21T06:28:34;9.40;99.90
11067;DHT22;29763;50.904;5.530;2023-11-21T06:33:51;9.40;99.90
11067;DHT22;29763;50.904;5.530;2023-11-21T06:36:18;9.40;99.90
11067;DHT22;29763;50.904;5.530;2023-11-21T06:39:01;9.40;99.90
11067;DHT22;29763;50.904;5.530;2023-11-21T06:41:29;9.40;99.90
11067;DHT22;29763;50.904;5.530;2023-11-21T06:44:10;9.30;99.90
11067;DHT22;29763;50.904;5.530;2023-11-21T06:46:40;9.30;99.90
11067;DHT22;29763;50.904;5.530;2023-11-21T06:49:11;9.30;99.90
11067;DHT22;29763;50.904;5.530;2023-11-21T06:51:42;9.30;99.90
11067;DHT22;29763;50.904;5.530;2023-11-21T06:54:08;9.30;99.90
11067;DHT22;29763;50.904;5.530;2023-11-21T06:56:48;9.30;99.90
11067;DHT22;29763;50.904;5.530;2023-11-21T06:59:38;9.30;99.90
11067;DHT22;29763;50.904;5.530;2023-11-21T07:02:08;9.30;99.90
11067;DHT22;29763;50.904;5.530;2023-11-21T07:04:36;9.30;99.90
11067;DHT22;29763;50.904;5.530;2023-11-21T07:07:15;9.40;99.90
11067;DHT22;29763;50.904;5.530;2023-11-21T07:10:09;9.30;99.90
11067;DHT22;29763;50.904;5.530;2023-11-21T07:12:35;9.40;99.90
11067;DHT22;29763;50.904;5.530;2023-11-21T07:15:10;9.40;99.90
11067;DHT22;29763;50.904;5.530;2023-11-21T07:17:40;9.40;99.90
11067;DHT22;29763;50.904;5.530;2023-11-21T07:20:10;9.40;99.90
11067;DHT22;29763;50.904;5.530;2023-11-21T07:22:41;9.40;99.90
11067;DHT22;29763;50.904;5.530;2023-11-21T07:25:27;9.40;99.90
11067;DHT22;29763;50.904;5.530;2023-11-21T07:28:00;9.50;99.90
11067;DHT22;29763;50.904;5.530;2023-11-21T07:30:28;9.50;99.90
11067;DHT22;29763;50.904;5.530;2023-11-21T07:33:00;9.50;99.90
11067;DHT22;29763;50.904;5.530;2023-11-21T07:35:30;9.50;99.90
11067;DHT22;29763;50.904;5.530;2023-11-21T07:38:00;9.50;99.90
11067;DHT22;29763;50.904;5.530;2023-11-21T07:40:35;9.50;99.90
11067;DHT22;29763;50.904;5.530;2023-11-21T07:43:03;9.50;99.90
11067;DHT22;29763;50.904;5.530;2023-11-21T07:45:32;9.50;99.90
11067;DHT22;29763;50.904;5.530;2023-11-21T07:47:59;9.60;99.90
11067;DHT22;29763;50.904;5.530;2023-11-21T07:50:38;9.60;99.90
11067;DHT22;29763;50.904;5.530;2023-11-21T07:53:05;9.60;99.90
11067;DHT22;29763;50.904;5.530;2023-11-21T07:55:49;9.70;99.90
11067;DHT22;29763;50.904;5.530;2023-11-21T07:58:18;9.70;99.90
11067;DHT22;29763;50.904;5.530;2023-11-21T08:00:49;9.80;99.90
11067;DHT22;29763;50.904;5.530;2023-11-21T08:03:31;9.90;99.90
11067;DHT22;29763;50.904;5.530;2023-11-21T08:06:16;9.90;99.90
11067;DHT22;29763;50.904;5.530;2023-11-21T08:08:42;9.90;99.90
11067;DHT22;29763;50.904;5.530;2023-11-21T08:11:15;9.90;99.90
11067;DHT22;29763;50.904;5.530;2023-11-21T08:13:43;9.90;99.90
11067;DHT22;29763;50.904;5.530;2023-11-21T08:16:28;9.90;99.90
11067;DHT22;29763;50.904;5.530;2023-11-21T08:18:55;10.00;99.90
11067;DHT22;29763;50.904;5.530;2023-11-21T08:21:23;10.00;99.90
11067;DHT22;29763;50.904;5.530;2023-11-21T08:23:52;10.00;99.90
11067;DHT22;29763;50.904;5.530;2023-11-21T08:26:23;10.00;99.90
11067;DHT22;29763;50.904;5.530;2023-11-21T08:28:58;10.00;99.90
11067;DHT22;29763;50.904;5.530;2023-11-21T08:31:32;10.00;99.90
11067;DHT22;29763;50.904;5.530;2023-11-21T08:34:00;10.00;99.90
11067;DHT22;29763;50.904;5.530;2023-11-21T08:36:42;10.10;99.90
11067;DHT22;29763;50.904;5.530;2023-11-21T08:39:17;10.10;99.90
11067;DHT22;29763;50.904;5.530;2023-11-21T08:41:47;10.20;99.90
11067;DHT22;29763;50.904;5.530;2023-11-21T08:44:17;10.20;99.90
11067;DHT22;29763;50.904;5.530;2023-11-21T08:46:59;10.20;99.90
11067;DHT22;29763;50.904;5.530;2023-11-21T08:49:28;10.20;99.90
11067;DHT22;29763;50.904;5.530;2023-11-21T08:52:16;10.30;99.90
11067;DHT22;29763;50.904;5.530;2023-11-21T08:54:51;10.30;99.90
11067;DHT22;29763;50.904;5.530;2023-11-21T08:57:33;10.30;99.90
11067;DHT22;29763;50.904;5.530;2023-11-21T09:00:15;10.30;99.90
11067;DHT22;29763;50.904;5.530;2023-11-21T09:03:02;10.40;99.90
11067;DHT22;29763;50.904;5.530;2023-11-21T09:05:37;10.50;99.90
11067;DHT22;29763;50.904;5.530;2023-11-21T09:08:07;10.50;99.90
11067;DHT22;29763;50.904;5.530;2023-11-21T09:10:50;10.60;99.90
11067;DHT22;29763;50.904;5.530;2023-11-21T09:13:17;10.70;99.90
11067;DHT22;29763;50.904;5.530;2023-11-21T09:15:44;10.70;99.90
11067;DHT22;29763;50.904;5.530;2023-11-21T09:18:16;10.80;99.90
11067;DHT22;29763;50.904;5.530;2023-11-21T09:20:48;10.90;99.90
11067;DHT22;29763;50.904;5.530;2023-11-21T09:23:45;10.90;99.90
11067;DHT22;29763;50.904;5.530;2023-11-21T09:26:33;10.90;99.90
11067;DHT22;29763;50.904;5.530;2023-11-21T09:29:01;11.00;99.90
11067;DHT22;29763;50.904;5.530;2023-11-21T09:31:30;11.00;99.90
11067;DHT22;29763;50.904;5.530;2023-11-21T09:33:56;11.00;99.90
11067;DHT22;29763;50.904;5.530;2023-11-21T09:36:24;11.10;99.90
11067;DHT22;29763;50.904;5.530;2023-11-21T09:39:04;11.10;99.90
11067;DHT22;29763;50.904;5.530;2023-11-21T09:41:51;11.10;99.90
11067;DHT22;29763;50.904;5.530;2023-11-21T09:44:50;11.10;99.90
11067;DHT22;29763;50.904;5.530;2023-11-21T09:47:44;11.10;99.90
11067;DHT22;29763;50.904;5.530;2023-11-21T09:50:17;11.20;99.90
11067;DHT22;29763;50.904;5.530;2023-11-21T09:56:24;11.20;99.90
11067;DHT22;29763;50.904;5.530;2023-11-21T09:59:24;11.10;99.90
11067;DHT22;29763;50.904;5.530;2023-11-21T10:05:04;11.10;99.90
11067;DHT22;29763;50.904;5.530;2023-11-21T10:08:06;11.10;99.90
11067;DHT22;29763;50.904;5.530;2023-11-21T10:13:50;11.20;99.90
11067;DHT22;29763;50.904;5.530;2023-11-21T10:16:26;11.30;99.90
11067;DHT22;29763;50.904;5.530;2023-11-21T10:19:35;11.30;99.90
11067;DHT22;29763;50.904;5.530;2023-11-21T10:22:12;11.30;99.90
11067;DHT22;29763;50.904;5.530;2023-11-21T10:24:49;11.30;99.90
11067;DHT22;29763;50.904;5.530;2023-11-21T10:27:21;11.30;99.90
11067;DHT22;29763;50.904;5.530;2023-11-21T10:29:54;11.30;99.90
11067;DHT22;29763;50.904;5.530;2023-11-21T10:32:30;11.30;99.90
11067;DHT22;29763;50.904;5.530;2023-11-21T10:35:04;11.30;99.90
11067;DHT22;29763;50.904;5.530;2023-11-21T10:40:20;11.40;99.90
11067;DHT22;29763;50.904;5.530;2023-11-21T10:42:53;11.50;99.90
11067;DHT22;29763;50.904;5.530;2023-11-21T10:45:25;11.50;99.90
11067;DHT22;29763;50.904;5.530;2023-11-21T10:48:12;11.60;99.90
11067;DHT22;29763;50.904;5.530;2023-11-21T10:51:16;11.60;99.90
11067;DHT22;29763;50.904;5.530;2023-11-21T10:53:56;11.70;99.90
11067;DHT22;29763;50.904;5.530;2023-11-21T10:56:42;11.70;99.90
11067;DHT22;29763;50.904;5.530;2023-11-21T10:59:15;11.70;99.90
11067;DHT22;29763;50.904;5.530;2023-11-21T11:02:01;11.80;99.90
11067;DHT22;29763;50.904;5.530;2023-11-21T11:04:45;11.80;99.90
11067;DHT22;29763;50.904;5.530;2023-11-21T11:07:12;11.80;99.90
11067;DHT22;29763;50.904;5.530;2023-11-21T11:10:09;11.90;99.90
11067;DHT22;29763;50.904;5.530;2023-11-21T11:12:45;11.90;99.90
11067;DHT22;29763;50.904;5.530;2023-11-21T11:15:26;11.90;99.90
11067;DHT22;29763;50.904;5.530;2023-11-21T11:17:56;11.90;99.90
11067;DHT22;29763;50.904;5.530;2023-11-21T11:20:42;11.90;99.90
11067;DHT22;29763;50.904;5.530;2023-11-21T11:33:19;12.10;99.90
11067;DHT22;29763;50.904;5.530;2023-11-21T11:38:57;12.20;99.90
11067;DHT22;29763;50.904;5.530;2023-11-21T11:41:51;12.20;99.90
11067;DHT22;29763;50.904;5.530;2023-11-21T11:47:57;12.20;99.90
11067;DHT22;29763;50.904;5.530;2023-11-21T11:50:27;12.20;99.90
11067;DHT22;29763;50.904;5.530;2023-11-21T11:53:21;12.10;99.90
11067;DHT22;29763;50.904;5.530;2023-11-21T11:56:22;12.10;99.90
11067;DHT22;29763;50.904;5.530;2023-11-21T11:58:59;12.10;99.90
11067;DHT22;29763;50.904;5.530;2023-11-21T12:01:35;12.00;99.90
11067;DHT22;29763;50.904;5.530;2023-11-21T12:04:29;12.00;99.90
11067;DHT22;29763;50.904;5.530;2023-11-21T12:07:13;11.90;99.90
11067;DHT22;29763;50.904;5.530;2023-11-21T12:09:51;11.90;99.90
11067;DHT22;29763;50.904;5.530;2023-11-21T12:12:22;11.90;99.90
11067;DHT22;29763;50.904;5.530;2023-11-21T12:14:51;11.90;99.90
11067;DHT22;29763;50.904;5.530;2023-11-21T12:17:40;12.00;99.90
11067;DHT22;29763;50.904;5.530;2023-11-21T12:20:11;12.00;99.90
11067;DHT22;29763;50.904;5.530;2023-11-21T12:23:24;12.00;99.90
11067;DHT22;29763;50.904;5.530;2023-11-21T12:25:53;12.00;99.90
11067;DHT22;29763;50.904;5.530;2023-11-21T12:28:31;12.00;99.90
11067;DHT22;29763;50.904;5.530;2023-11-21T12:31:00;12.00;99.90
11067;DHT22;29763;50.904;5.530;2023-11-21T12:33:30;12.00;99.90
11067;DHT22;29763;50.904;5.530;2023-11-21T12:36:00;12.00;99.90
11067;DHT22;29763;50.904;5.530;2023-11-21T12:38:38;12.00;99.90
11067;DHT22;29763;50.904;5.530;2023-11-21T12:41:10;12.00;99.90
11067;DHT22;29763;50.904;5.530;2023-11-21T12:43:37;11.90;99.90
11067;DHT22;29763;50.904;5.530;2023-11-21T12:46:17;11.90;99.90
11067;DHT22;29763;50.904;5.530;2023-11-21T12:49:16;11.80;99.90
11067;DHT22;29763;50.904;5.530;2023-11-21T12:51:56;11.80;99.90
11067;DHT22;29763;50.904;5.530;2023-11-21T12:54:44;11.80;99.90
11067;DHT22;29763;50.904;5.530;2023-11-21T13:00:48;11.80;99.90
11067;DHT22;29763;50.904;5.530;2023-11-21T13:03:52;11.80;99.90
11067;DHT22;29763;50.904;5.530;2023-11-21T13:06:37;11.80;99.90
11067;DHT22;29763;50.904;5.530;2023-11-21T13:12:29;11.90;99.90
11067;DHT22;29763;50.904;5.530;2023-11-21T13:15:05;11.90;99.90
11067;DHT22;29763;50.904;5.530;2023-11-21T13:17:48;11.90;99.90
11067;DHT22;29763;50.904;5.530;2023-11-21T13:20:25;12.00;99.90
11067;DHT22;29763;50.904;5.530;2023-11-21T13:23:41;12.00;99.90
11067;DHT22;29763;50.904;5.530;2023-11-21T13:26:19;12.00;99.90
11067;DHT22;29763;50.904;5.530;2023-11-21T13:29:36;11.90;99.90
11067;DHT22;29763;50.904;5.530;2023-11-21T13:32:15;11.90;99.90
11067;DHT22;29763;50.904;5.530;2023-11-21T13:35:25;12.00;99.90
11067;DHT22;29763;50.904;5.530;2023-11-21T13:38:27;11.90;99.90
11067;DHT22;29763;50.904;5.530;2023-11-21T13:41:00;11.90;99.90
11067;DHT22;29763;50.904;5.530;2023-11-21T13:43:40;11.80;99.90
11067;DHT22;29763;50.904;5.530;2023-11-21T13:46:15;11.90;99.90
11067;DHT22;29763;50.904;5.530;2023-11-21T13:48:51;11.90;99.90
11067;DHT22;29763;50.904;5.530;2023-11-21T13:54:32;12.00;99.90
11067;DHT22;29763;50.904;5.530;2023-11-21T13:57:29;11.90;99.90
11067;DHT22;29763;50.904;5.530;2023-11-21T14:00:08;12.00;99.90
11067;DHT22;29763;50.904;5.530;2023-11-21T14:03:10;12.00;99.90
11067;DHT22;29763;50.904;5.530;2023-11-21T14:05:55;11.90;99.90
11067;DHT22;29763;50.904;5.530;2023-11-21T14:08:40;12.00;99.90
11067;DHT22;29763;50.904;5.530;2023-11-21T14:11:32;12.00;99.90
11067;DHT22;29763;50.904;5.530;2023-11-21T14:15:34;12.00;99.90
11067;DHT22;29763;50.904;5.530;2023-11-21T14:18:22;12.10;99.90
11067;DHT22;29763;50.904;5.530;2023-11-21T14:20:59;12.10;99.90
11067;DHT22;29763;50.904;5.530;2023-11-21T14:23:32;12.00;99.90
11067;DHT22;29763;50.904;5.530;2023-11-21T14:26:05;12.00;99.90
11067;DHT22;29763;50.904;5.530;2023-11-21T14:28:50;11.70;99.90
11067;DHT22;29763;50.904;5.530;2023-11-21T14:31:23;11.60;99.90
11067;DHT22;29763;50.904;5.530;2023-11-21T14:33:56;11.60;99.90
11067;DHT22;29763;50.904;5.530;2023-11-21T14:36:41;11.50;99.90
11067;DHT22;29763;50.904;5.530;2023-11-21T14:39:16;11.40;99.90
11067;DHT22;29763;50.904;5.530;2023-11-21T14:41:52;11.30;99.90
11067;DHT22;29763;50.904;5.530;2023-11-21T14:44:18;11.40;99.90
11067;DHT22;29763;50.904;5.530;2023-11-21T14:46:52;11.30;99.90
11067;DHT22;29763;50.904;5.530;2023-11-21T14:49:30;11.30;99.90
11067;DHT22;29763;50.904;5.530;2023-11-21T14:52:27;11.40;99.90
11067;DHT22;29763;50.904;5.530;2023-11-21T14:55:04;11.40;99.90
11067;DHT22;29763;50.904;5.530;2023-11-21T14:57:53;11.40;99.90
11067;DHT22;29763;50.904;5.530;2023-11-21T15:00:54;11.40;99.90
11067;DHT22;29763;50.904;5.530;2023-11-21T15:03:50;11.40;99.90
11067;DHT22;29763;50.904;5.530;2023-11-21T15:06:19;11.40;99.90
11067;DHT22;29763;50.904;5.530;2023-11-21T15:09:01;11.40;99.90
11067;DHT22;29763;50.904;5.530;2023-11-21T15:11:51;11.40;99.90
11067;DHT22;29763;50.904;5.530;2023-11-21T15:17:37;11.30;99.90
11067;DHT22;29763;50.904;5.530;2023-11-21T15:20:46;11.30;99.90
11067;DHT22;29763;50.904;5.530;2023-11-21T15:23:18;11.20;99.90
11067;DHT22;29763;50.904;5.530;2023-11-21T15:25:45;11.20;99.90
11067;DHT22;29763;50.904;5.530;2023-11-21T15:28:19;11.20;99.90
11067;DHT22;29763;50.904;5.530;2023-11-21T15:30:53;11.10;99.90
11067;DHT22;29763;50.904;5.530;2023-11-21T15:33:38;11.10;99.90
11067;DHT22;29763;50.904;5.530;2023-11-21T15:36:09;11.00;99.90
11067;DHT22;29763;50.904;5.530;2023-11-21T15:38:39;11.00;99.90
11067;DHT22;29763;50.904;5.530;2023-11-21T15:41:53;11.00;99.90
11067;DHT22;29763;50.904;5.530;2023-11-21T15:44:32;10.90;99.90
11067;DHT22;29763;50.904;5.530;2023-11-21T15:46:59;10.90;99.90
11067;DHT22;29763;50.904;5.530;2023-11-21T15:49:25;10.90;99.90
11067;DHT22;29763;50.904;5.530;2023-11-21T15:51:59;10.80;99.90
11067;DHT22;29763;50.904;5.530;2023-11-21T15:54:37;10.80;99.90
11067;DHT22;29763;50.904;5.530;2023-11-21T15:57:07;10.80;99.90
11067;DHT22;29763;50.904;5.530;2023-11-21T15:59:41;10.80;99.90
11067;DHT22;29763;50.904;5.530;2023-11-21T16:05:04;10.70;99.90
11067;DHT22;29763;50.904;5.530;2023-11-21T16:07:35;10.70;99.90
11067;DHT22;29763;50.904;5.530;2023-11-21T16:10:04;10.70;99.90
11067;DHT22;29763;50.904;5.530;2023-11-21T16:12:54;10.60;99.90
11067;DHT22;29763;50.904;5.530;2023-11-21T16:15:49;10.50;99.90
11067;DHT22;29763;50.904;5.530;2023-11-21T16:18:52;10.50;99.90
11067;DHT22;29763;50.904;5.530;2023-11-21T16:21:18;10.40;99.90
11067;DHT22;29763;50.904;5.530;2023-11-21T16:23:45;10.40;99.90
11067;DHT22;29763;50.904;5.530;2023-11-21T16:26:12;10.40;99.90
11067;DHT22;29763;50.904;5.530;2023-11-21T16:29:12;10.40;99.90
11067;DHT22;29763;50.904;5.530;2023-11-21T16:31:41;10.40;99.90
11067;DHT22;29763;50.904;5.530;2023-11-21T16:34:23;10.30;99.90
11067;DHT22;29763;50.904;5.530;2023-11-21T16:36:50;10.40;99.90
11067;DHT22;29763;50.904;5.530;2023-11-21T16:39:23;10.30;99.90
11067;DHT22;29763;50.904;5.530;2023-11-21T16:41:57;10.30;99.90
11067;DHT22;29763;50.904;5.530;2023-11-21T16:44:25;10.40;99.90
11067;DHT22;29763;50.904;5.530;2023-11-21T16:46:57;10.30;99.90
11067;DHT22;29763;50.904;5.530;2023-11-21T16:49:44;10.30;99.90
11067;DHT22;29763;50.904;5.530;2023-11-21T16:52:40;10.40;99.90
11067;DHT22;29763;50.904;5.530;2023-11-21T16:55:09;10.40;99.90
11067;DHT22;29763;50.904;5.530;2023-11-21T16:57:38;10.40;99.90
11067;DHT22;29763;50.904;5.530;2023-11-21T17:00:13;10.40;99.90
11067;DHT22;29763;50.904;5.530;2023-11-21T17:02:46;10.40;99.90
11067;DHT22;29763;50.904;5.530;2023-11-21T17:05:39;10.30;99.90
11067;DHT22;29763;50.904;5.530;2023-11-21T17:08:25;10.30;99.90
11067;DHT22;29763;50.904;5.530;2023-11-21T17:11:04;10.40;99.90
11067;DHT22;29763;50.904;5.530;2023-11-21T17:13:43;10.40;99.90
11067;DHT22;29763;50.904;5.530;2023-11-21T17:16:53;10.30;99.90
11067;DHT22;29763;50.904;5.530;2023-11-21T17:19:04;10.30;99.90
11067;DHT22;29763;50.904;5.530;2023-11-21T17:21:30;10.40;99.90
11067;DHT22;29763;50.904;5.530;2023-11-21T17:24:05;10.40;99.90
11067;DHT22;29763;50.904;5.530;2023-11-21T17:26:44;10.30;99.90
11067;DHT22;29763;50.904;5.530;2023-11-21T17:29:24;10.40;99.90
11067;DHT22;29763;50.904;5.530;2023-11-21T17:31:51;10.30;99.90
11067;DHT22;29763;50.904;5.530;2023-11-21T17:34:17;10.30;99.90
11067;DHT22;29763;50.904;5.530;2023-11-21T17:36:45;10.30;99.90
11067;DHT22;29763;50.904;5.530;2023-11-21T17:42:07;10.30;99.90
11067;DHT22;29763;50.904;5.530;2023-11-21T17:44:40;10.20;99.90
11067;DHT22;29763;50.904;5.530;2023-11-21T17:47:10;10.30;99.90